Terminal Aerodrome Forecast
Issued by NWS

Home | Current Version | Previous Version | Graphics & Text | Print | Product List | Glossary On
Versions: 1 2 3 4 5 6 7 8 9 10 11 12 13
000
FTUS45 KGGW 141134
TAFSDY
TAF
KSDY 141134Z 1412/1512 28016G23KT P6SM VCSH SCT050 BKN080
      WS020/32040KT
     FM141800 34014KT P6SM VCSH OVC050
     FM142000 34012KT P6SM FEW045 SCT250
     FM151100 33005KT P6SM SKC=

USA.gov is the U.S. government's official web portal to all federal, state and local government web resources and services.